createdAt,value
2019-04-06T00:00:06.903Z,25.10
2019-04-06T00:02:39.657Z,25.35
2019-04-06T00:05:09.190Z,24.02
2019-04-06T00:07:38.524Z,24.70
2019-04-06T00:10:07.899Z,25.35
2019-04-06T00:12:37.231Z,24.67
2019-04-06T00:15:07.530Z,24.57
2019-04-06T00:17:36.791Z,23.38
2019-04-06T00:20:09.158Z,24.25
2019-04-06T00:22:38.466Z,23.50
2019-04-06T00:25:07.795Z,24.80
2019-04-06T00:27:37.151Z,24.32
2019-04-06T00:30:07.619Z,24.27
2019-04-06T00:32:38.653Z,25.50
2019-04-06T00:35:07.975Z,24.18
2019-04-06T00:37:37.284Z,24.30
2019-04-06T00:40:07.668Z,25.52
2019-04-06T00:42:37.034Z,25.52
2019-04-06T00:45:06.651Z,25.25
2019-04-06T00:47:35.949Z,24.95
2019-04-06T00:50:07.995Z,25.50
2019-04-06T00:52:37.265Z,25.17
2019-04-06T00:55:06.524Z,24.92
2019-04-06T00:57:35.807Z,24.07
2019-04-06T01:00:08.170Z,24.60
2019-04-06T01:02:37.792Z,24.47
2019-04-06T01:05:07.058Z,24.37
2019-04-06T01:07:36.415Z,23.98
2019-04-06T01:10:06.465Z,24.07
2019-04-06T01:12:35.823Z,26.15
2019-04-06T01:15:06.319Z,24.55
2019-04-06T01:17:35.608Z,25.45
2019-04-06T01:20:05.537Z,25.68
2019-04-06T01:22:34.830Z,25.65
2019-04-06T01:25:06.331Z,24.95
2019-04-06T01:27:35.753Z,25.72
2019-04-06T01:30:06.947Z,25.15
2019-04-06T01:32:36.207Z,25.77
2019-04-06T01:35:05.761Z,25.55
2019-04-06T01:37:35.229Z,27.25
2019-04-06T01:40:06.510Z,25.37
2019-04-06T01:42:35.874Z,25.27
2019-04-06T01:45:06.211Z,25.95
2019-04-06T01:47:35.502Z,26.45
2019-04-06T01:50:05.227Z,24.82
2019-04-06T01:52:34.486Z,25.27
2019-04-06T01:55:04.344Z,26.45
2019-04-06T01:57:33.606Z,25.25
2019-04-06T02:00:03.230Z,26.65
2019-04-06T02:02:35.203Z,25.27
2019-04-06T02:05:06.443Z,26.27
2019-04-06T02:07:35.705Z,26.07
2019-04-06T02:10:06.889Z,24.80
2019-04-06T02:12:36.170Z,26.55
2019-04-06T02:15:06.127Z,26.75
2019-04-06T02:17:35.482Z,25.32
2019-04-06T02:20:05.278Z,25.55
2019-04-06T02:22:34.685Z,24.65
2019-04-06T02:25:06.139Z,26.12
2019-04-06T02:27:35.480Z,27.35
2019-04-06T02:30:12.368Z,27.77
2019-04-06T02:32:59.605Z,25.75
2019-04-06T02:35:33.031Z,27.37
2019-04-06T02:38:06.935Z,30.80
2019-04-06T02:40:37.912Z,32.03
2019-04-06T02:43:14.800Z,29.82
2019-04-06T02:45:44.136Z,28.73
2019-04-06T02:48:13.415Z,31.07
2019-04-06T02:50:42.671Z,27.85
2019-04-06T02:53:13.029Z,26.77
2019-04-06T02:55:42.284Z,26.40
2019-04-06T02:58:11.811Z,25.02
2019-04-06T03:00:41.131Z,25.60
2019-04-06T03:03:10.413Z,25.77
2019-04-06T03:05:39.671Z,25.12
2019-04-06T03:08:08.960Z,24.72
2019-04-06T03:10:38.292Z,24.85
2019-04-06T03:13:07.575Z,27.13
2019-04-06T03:15:36.835Z,25.60
2019-04-06T03:18:06.761Z,25.90
2019-04-06T03:20:35.957Z,25.08
2019-04-06T03:23:05.239Z,26.33
2019-04-06T03:25:34.527Z,26.23
2019-04-06T03:28:04.855Z,26.73
2019-04-06T03:30:34.153Z,25.12
2019-04-06T03:33:03.731Z,25.90
2019-04-06T03:35:33.141Z,26.87
2019-04-06T03:38:02.533Z,25.02
2019-04-06T03:40:31.835Z,25.90
2019-04-06T03:43:01.099Z,25.08
2019-04-06T03:45:31.555Z,25.40
2019-04-06T03:48:00.839Z,25.52
2019-04-06T03:50:30.103Z,25.52
2019-04-06T03:52:59.443Z,25.32
2019-04-06T03:55:28.715Z,24.60
2019-04-06T03:57:58.003Z,26.70
2019-04-06T04:00:27.276Z,25.35
2019-04-06T04:02:56.604Z,25.48
2019-04-06T04:05:25.964Z,26.02
2019-04-06T04:07:55.410Z,26.48
2019-04-06T04:10:36.140Z,25.17
2019-04-06T04:13:05.698Z,26.87
2019-04-06T04:15:34.951Z,25.43
2019-04-06T04:18:04.249Z,25.20
2019-04-06T04:20:33.503Z,25.17
2019-04-06T04:23:02.787Z,25.20
2019-04-06T04:25:32.072Z,26.40
2019-04-06T04:28:01.342Z,27.20
2019-04-06T04:30:34.027Z,26.60
2019-04-06T04:33:02.634Z,27.37
2019-04-06T04:35:32.979Z,25.92
2019-04-06T04:38:02.261Z,26.95
2019-04-06T04:40:31.528Z,25.95
2019-04-06T04:43:00.792Z,25.40
2019-04-06T04:45:30.075Z,26.68
2019-04-06T04:47:59.344Z,25.12
2019-04-06T04:50:28.619Z,26.30
2019-04-06T04:52:57.885Z,26.73
2019-04-06T04:55:27.167Z,26.12
2019-04-06T04:57:57.500Z,26.93
2019-04-06T05:00:26.782Z,24.60
2019-04-06T05:02:56.043Z,26.95
2019-04-06T05:05:25.330Z,26.33
2019-04-06T05:07:54.595Z,26.27
2019-04-06T05:10:23.870Z,25.65
2019-04-06T05:12:53.135Z,26.00
2019-04-06T05:15:34.723Z,25.95
2019-04-06T05:18:03.987Z,27.40
2019-04-06T05:20:33.274Z,25.75
2019-04-06T05:23:02.596Z,24.95
2019-04-06T05:25:32.055Z,26.35
2019-04-06T05:28:01.371Z,25.92
2019-04-06T05:30:30.630Z,27.52
2019-04-06T05:32:59.935Z,27.25
2019-04-06T05:35:29.198Z,27.55
2019-04-06T05:37:58.657Z,27.52
2019-04-06T05:40:27.914Z,27.10
2019-04-06T05:42:57.199Z,28.35
2019-04-06T05:45:26.520Z,28.10
2019-04-06T05:47:55.806Z,28.17
2019-04-06T05:50:25.162Z,27.62
2019-04-06T05:52:54.641Z,28.17
2019-04-06T05:55:24.746Z,29.35
2019-04-06T05:58:02.924Z,26.97
2019-04-06T06:00:25.149Z,27.73
2019-04-06T06:02:54.492Z,27.42
2019-04-06T06:05:23.753Z,26.77
2019-04-06T06:07:53.034Z,27.65
2019-04-06T06:10:22.290Z,27.58
2019-04-06T06:12:51.652Z,28.57
2019-04-06T06:15:21.213Z,27.73
2019-04-06T06:17:50.699Z,28.70
2019-04-06T06:20:20.216Z,27.70
2019-04-06T06:22:49.503Z,28.38
2019-04-06T06:25:18.864Z,30.48
2019-04-06T06:27:48.144Z,28.42
2019-04-06T06:30:17.585Z,29.50
2019-04-06T06:32:47.162Z,30.37
2019-04-06T06:35:16.567Z,30.92
2019-04-06T06:37:45.902Z,30.25
2019-04-06T06:40:15.159Z,29.32
2019-04-06T06:42:44.419Z,30.25
2019-04-06T06:45:13.702Z,30.35
2019-04-06T06:47:42.965Z,31.05
2019-04-06T06:50:12.249Z,30.00
2019-04-06T06:52:41.529Z,30.72
2019-04-06T06:55:10.815Z,30.25
2019-04-06T06:57:40.075Z,30.70
2019-04-06T07:00:10.436Z,30.37
2019-04-06T07:02:39.799Z,30.60
2019-04-06T07:05:09.113Z,31.87
2019-04-06T07:07:38.363Z,30.80
2019-04-06T07:10:07.658Z,32.17
2019-04-06T07:12:36.908Z,33.08
2019-04-06T07:15:06.948Z,31.97
2019-04-06T07:17:36.219Z,33.08
2019-04-06T07:20:06.321Z,34.30
2019-04-06T07:22:35.690Z,34.75
2019-04-06T07:25:05.832Z,32.85
2019-04-06T07:27:35.127Z,33.28
2019-04-06T07:30:08.147Z,33.63
2019-04-06T07:32:37.511Z,33.85
2019-04-06T07:35:06.828Z,32.03
2019-04-06T07:37:36.070Z,33.23
2019-04-06T07:40:07.039Z,34.33
2019-04-06T07:42:36.337Z,35.98
2019-04-06T07:45:06.634Z,33.60
2019-04-06T07:47:36.038Z,33.90
2019-04-06T07:50:06.811Z,32.90
2019-04-06T07:52:36.320Z,33.80
2019-04-06T07:55:06.910Z,34.53
2019-04-06T07:57:37.374Z,32.00
2019-04-06T08:00:07.291Z,36.65
2019-04-06T08:02:36.643Z,32.70
2019-04-06T08:05:06.023Z,33.45
2019-04-06T08:07:35.582Z,34.25
2019-04-06T08:10:05.783Z,33.10
2019-04-06T08:12:35.058Z,32.40
2019-04-06T08:15:06.779Z,35.43
2019-04-06T08:17:36.291Z,33.88
2019-04-06T08:20:07.475Z,32.58
2019-04-06T08:22:36.765Z,33.60
2019-04-06T08:25:06.547Z,33.78
2019-04-06T08:27:35.837Z,32.23
2019-04-06T08:30:09.623Z,32.80
2019-04-06T08:32:38.966Z,31.48
2019-04-06T08:35:08.258Z,32.17
2019-04-06T08:37:38.595Z,31.15
2019-04-06T08:40:07.950Z,32.03
2019-04-06T08:42:50.009Z,30.82
2019-04-06T08:45:19.462Z,31.95
2019-04-06T08:47:48.815Z,30.08
2019-04-06T08:50:18.179Z,29.98
2019-04-06T08:52:47.589Z,31.02
2019-04-06T08:55:16.976Z,29.45
2019-04-06T08:57:46.298Z,29.65
2019-04-06T09:00:15.745Z,28.52
2019-04-06T09:02:45.214Z,31.62
2019-04-06T09:05:14.622Z,31.20
2019-04-06T09:07:43.918Z,29.70
2019-04-06T09:10:13.186Z,30.10
2019-04-06T09:12:42.479Z,29.07
2019-04-06T09:15:11.813Z,27.35
2019-04-06T09:17:41.099Z,29.00
2019-04-06T09:20:10.365Z,27.25
2019-04-06T09:22:39.655Z,28.77
2019-04-06T09:25:09.061Z,27.85
2019-04-06T09:27:38.680Z,27.50
2019-04-06T09:30:08.103Z,27.70
2019-04-06T09:32:37.441Z,27.20
2019-04-06T09:35:08.339Z,27.52
2019-04-06T09:37:38.995Z,27.32
2019-04-06T09:40:08.614Z,26.62
2019-04-06T09:42:37.979Z,25.60
2019-04-06T09:45:14.962Z,25.20
2019-04-06T09:47:45.906Z,25.45
2019-04-06T09:50:20.864Z,24.30
2019-04-06T09:53:03.762Z,24.45
2019-04-06T09:55:43.730Z,25.65
2019-04-06T09:58:17.773Z,24.00
2019-04-06T10:00:48.902Z,22.48
2019-04-06T10:03:31.375Z,22.85
2019-04-06T10:06:04.971Z,19.87
2019-04-06T10:08:41.611Z,20.25
2019-04-06T10:11:28.775Z,20.88
2019-04-06T10:14:14.768Z,21.70
2019-04-06T10:16:45.718Z,21.27
2019-04-06T10:19:33.392Z,20.30
2019-04-06T10:22:10.079Z,20.88
2019-04-06T10:24:57.583Z,20.85
2019-04-06T10:27:46.766Z,21.23
2019-04-06T10:30:18.073Z,20.70
2019-04-06T10:32:48.950Z,21.75
2019-04-06T10:35:28.937Z,21.42
2019-04-06T10:37:59.988Z,17.75
2019-04-06T10:40:30.962Z,18.73
2019-04-06T10:43:18.369Z,17.57
2019-04-06T10:46:04.304Z,17.87
2019-04-06T10:48:47.268Z,18.87
2019-04-06T10:51:34.462Z,20.68
2019-04-06T10:54:05.374Z,19.50
2019-04-06T10:56:52.619Z,20.52
2019-04-06T10:59:29.258Z,20.55
2019-04-06T11:02:16.230Z,25.02
2019-04-06T11:04:59.015Z,20.00
2019-04-06T11:07:30.121Z,19.73
2019-04-06T11:10:01.058Z,19.15
2019-04-06T11:12:32.055Z,19.42
2019-04-06T11:15:02.962Z,19.77
2019-04-06T11:17:47.138Z,20.27
2019-04-06T11:20:18.066Z,18.60
2019-04-06T11:23:01.350Z,18.40
2019-04-06T11:25:41.491Z,19.70
2019-04-06T11:28:12.431Z,18.27
2019-04-06T11:30:49.494Z,19.40
2019-04-06T11:33:26.260Z,19.40
2019-04-06T11:36:15.649Z,19.30
2019-04-06T11:38:49.622Z,21.48
2019-04-06T11:41:32.846Z,20.17
2019-04-06T11:44:16.327Z,22.10
2019-04-06T11:46:48.180Z,22.37
2019-04-06T11:49:21.887Z,21.60
2019-04-06T11:51:52.802Z,21.37
2019-04-06T11:54:32.985Z,21.10
2019-04-06T11:57:19.406Z,20.57
2019-04-06T11:59:50.438Z,20.95
2019-04-06T12:02:37.799Z,19.30
2019-04-06T12:05:12.060Z,17.98
2019-04-06T12:07:46.068Z,17.57
2019-04-06T12:10:25.790Z,18.15
2019-04-06T12:13:12.099Z,16.20
2019-04-06T12:15:58.140Z,16.45
2019-04-06T12:18:44.367Z,16.40
2019-04-06T12:21:15.379Z,17.57
2019-04-06T12:24:02.612Z,17.40
2019-04-06T12:26:45.382Z,17.27
2019-04-06T12:29:16.993Z,17.30
2019-04-06T12:31:53.893Z,17.45
2019-04-06T12:34:40.372Z,16.65
2019-04-06T12:37:11.334Z,17.00
2019-04-06T12:39:52.251Z,15.90
2019-04-06T12:42:17.827Z,15.95
2019-04-06T12:44:50.126Z,16.97
2019-04-06T12:47:30.363Z,14.98
2019-04-06T12:50:01.634Z,15.08
2019-04-06T12:52:35.793Z,13.38
2019-04-06T12:55:10.031Z,14.85
2019-04-06T12:57:47.229Z,14.95
2019-04-06T13:00:20.806Z,14.43
2019-04-06T13:02:51.807Z,12.85
2019-04-06T13:05:40.099Z,12.70
2019-04-06T13:08:26.412Z,12.15
2019-04-06T13:11:00.069Z,12.75
2019-04-06T13:13:31.046Z,11.55
2019-04-06T13:16:10.907Z,11.40
2019-04-06T13:18:47.895Z,11.63
2019-04-06T13:21:36.759Z,12.40
2019-04-06T13:24:16.780Z,11.80
2019-04-06T13:27:00.062Z,12.20
2019-04-06T13:29:47.407Z,11.65
2019-04-06T13:32:27.390Z,11.28
2019-04-06T13:35:15.187Z,12.03
2019-04-06T13:38:04.227Z,11.78
2019-04-06T13:40:41.967Z,12.00
2019-04-06T13:43:24.907Z,12.23
2019-04-06T13:45:58.650Z,11.65
2019-04-06T13:48:29.635Z,11.60
2019-04-06T13:51:03.239Z,11.75
2019-04-06T13:53:51.115Z,11.40
2019-04-06T13:56:22.085Z,11.30
2019-04-06T13:58:58.727Z,11.55
2019-04-06T14:01:48.267Z,11.53
2019-04-06T14:04:22.159Z,10.63
2019-04-06T14:06:53.072Z,10.08
2019-04-06T14:09:24.002Z,10.25
2019-04-06T14:11:55.180Z,9.85
2019-04-06T14:14:34.803Z,10.20
2019-04-06T14:17:15.018Z,9.88
2019-04-06T14:19:51.907Z,9.38
2019-04-06T14:22:39.722Z,9.48
2019-04-06T14:25:19.630Z,8.85
2019-04-06T14:28:02.078Z,8.63
2019-04-06T14:30:42.418Z,9.40
2019-04-06T14:33:31.787Z,9.43
2019-04-06T14:36:02.683Z,8.58
2019-04-06T14:38:45.639Z,9.30
2019-04-06T14:41:16.900Z,7.70
2019-04-06T14:43:50.930Z,7.45
2019-04-06T14:46:24.733Z,8.90
2019-04-06T14:49:27.499Z,8.35
2019-04-06T14:52:00.971Z,8.65
2019-04-06T14:54:50.134Z,8.80
2019-04-06T14:57:27.073Z,9.10
2019-04-06T14:59:58.004Z,8.68
2019-04-06T15:02:31.798Z,8.95
2019-04-06T15:05:03.827Z,9.60
2019-04-06T15:07:37.938Z,8.45
2019-04-06T15:10:14.550Z,9.15
2019-04-06T15:12:45.487Z,8.55
2019-04-06T15:15:19.159Z,8.58
2019-04-06T15:17:54.808Z,8.80
2019-04-06T15:20:31.600Z,8.20
2019-04-06T15:23:08.702Z,8.80
2019-04-06T15:25:39.632Z,8.48
2019-04-06T15:28:22.567Z,7.90
2019-04-06T15:31:09.014Z,9.00
2019-04-06T15:33:58.490Z,8.10
2019-04-06T15:36:32.335Z,8.38
2019-04-06T15:39:11.827Z,9.40
2019-04-06T15:41:57.207Z,8.23
2019-04-06T15:44:36.107Z,8.25
2019-04-06T15:47:16.072Z,7.83
2019-04-06T15:49:52.654Z,8.30
2019-04-06T15:52:39.930Z,8.78
2019-04-06T15:55:12.026Z,8.93
2019-04-06T15:57:48.999Z,8.80
2019-04-06T16:00:20.170Z,8.13
2019-04-06T16:02:51.187Z,8.10
2019-04-06T16:05:22.090Z,7.17
2019-04-06T16:07:56.054Z,7.10
2019-04-06T16:10:30.393Z,7.97
2019-04-06T16:13:05.583Z,7.53
2019-04-06T16:15:40.732Z,7.85
2019-04-06T16:18:27.871Z,7.55
2019-04-06T16:21:11.043Z,7.47
2019-04-06T16:24:03.567Z,7.05
2019-04-06T16:26:49.545Z,6.47
2019-04-06T16:29:29.427Z,6.83
2019-04-06T16:32:10.815Z,6.75
2019-04-06T16:34:45.059Z,7.92
2019-04-06T16:37:19.224Z,7.90
2019-04-06T16:39:50.166Z,7.30
2019-04-06T16:42:21.062Z,7.62
2019-04-06T16:44:55.012Z,7.87
2019-04-06T16:47:26.311Z,7.65
2019-04-06T16:50:15.634Z,7.90
2019-04-06T16:53:03.880Z,7.83
2019-04-06T16:55:40.696Z,7.65
2019-04-06T16:58:20.601Z,8.13
2019-04-06T17:01:06.780Z,8.35
2019-04-06T17:03:40.846Z,8.13
2019-04-06T17:06:11.746Z,8.18
2019-04-06T17:08:48.940Z,8.23
2019-04-06T17:11:36.430Z,8.38
2019-04-06T17:14:23.840Z,8.95
2019-04-06T17:16:54.766Z,8.53
2019-04-06T17:19:43.729Z,8.48
2019-04-06T17:22:17.538Z,8.78
2019-04-06T17:24:48.536Z,9.10
2019-04-06T17:27:28.319Z,8.70
2019-04-06T17:30:15.542Z,9.43
2019-04-06T17:32:55.102Z,8.90
2019-04-06T17:35:38.396Z,9.60
2019-04-06T17:38:26.058Z,8.50
2019-04-06T17:40:57.281Z,8.35
2019-04-06T17:43:34.086Z,8.58
2019-04-06T17:46:07.707Z,8.73
2019-04-06T17:48:57.101Z,8.88
2019-04-06T17:51:40.837Z,9.03
2019-04-06T17:54:14.532Z,8.95
2019-04-06T17:56:48.287Z,7.87
2019-04-06T17:59:19.210Z,8.55
2019-04-06T18:02:10.070Z,8.45
2019-04-06T18:04:41.398Z,8.05
2019-04-06T18:07:24.584Z,8.20
2019-04-06T18:09:58.242Z,8.20
2019-04-06T18:12:32.432Z,8.03
2019-04-06T18:15:02.040Z,7.95
2019-04-06T18:17:31.471Z,7.67
2019-04-06T18:20:00.759Z,8.43
2019-04-06T18:22:30.090Z,8.08
2019-04-06T18:24:59.371Z,7.75
2019-04-06T18:27:28.631Z,7.53
2019-04-06T18:29:57.987Z,7.40
2019-04-06T18:32:34.817Z,7.80
2019-04-06T18:35:05.672Z,8.38
2019-04-06T18:37:42.410Z,7.33
2019-04-06T18:40:22.701Z,7.25
2019-04-06T18:42:52.046Z,7.47
2019-04-06T18:45:22.467Z,7.35
2019-04-06T18:47:51.971Z,7.70
2019-04-06T18:50:32.692Z,7.60
2019-04-06T18:52:52.234Z,7.92
2019-04-06T18:55:21.520Z,7.20
2019-04-06T18:57:50.839Z,7.58
2019-04-06T19:00:20.754Z,8.25
2019-04-06T19:02:50.099Z,8.35
2019-04-06T19:05:19.464Z,6.92
2019-04-06T19:07:49.272Z,7.35
2019-04-06T19:10:18.687Z,7.20
2019-04-06T19:12:48.506Z,7.70
2019-04-06T19:15:17.776Z,6.90
2019-04-06T19:17:47.456Z,7.22
2019-04-06T19:20:16.906Z,7.08
2019-04-06T19:22:46.733Z,6.50
2019-04-06T19:25:16.159Z,6.62
2019-04-06T19:27:48.791Z,6.45
2019-04-06T19:30:18.134Z,7.05
2019-04-06T19:32:47.418Z,6.90
2019-04-06T19:35:16.977Z,7.05
2019-04-06T19:37:46.478Z,6.67
2019-04-06T19:40:16.557Z,6.87
2019-04-06T19:42:47.284Z,6.97
2019-04-06T19:45:17.979Z,6.25
2019-04-06T19:47:47.251Z,6.85
2019-04-06T19:50:17.596Z,6.20
2019-04-06T19:52:47.931Z,5.72
2019-04-06T19:55:17.191Z,6.15
2019-04-06T19:57:47.056Z,5.80
2019-04-06T20:00:16.709Z,5.80
2019-04-06T20:02:46.166Z,6.22
2019-04-06T20:05:15.520Z,6.45
2019-04-06T20:07:44.883Z,5.92
2019-04-06T20:10:14.210Z,5.70
2019-04-06T20:12:43.673Z,5.87
2019-04-06T20:15:13.259Z,5.90
2019-04-06T20:17:42.726Z,6.35
2019-04-06T20:20:12.107Z,5.60
2019-04-06T20:22:41.458Z,5.97
2019-04-06T20:25:11.131Z,5.47
2019-04-06T20:27:40.885Z,6.25
2019-04-06T20:30:11.279Z,5.47
2019-04-06T20:32:40.739Z,5.45
2019-04-06T20:35:10.012Z,5.37
2019-04-06T20:37:39.287Z,5.65
2019-04-06T20:40:08.760Z,5.08
2019-04-06T20:42:38.180Z,5.12
2019-04-06T20:45:08.611Z,5.28
2019-04-06T20:47:37.890Z,5.22
2019-04-06T20:50:07.438Z,5.10
2019-04-06T20:52:37.082Z,4.85
2019-04-06T20:55:06.701Z,4.72
2019-04-06T20:57:36.354Z,5.20
2019-04-06T21:00:07.225Z,4.90
2019-04-06T21:02:38.174Z,5.00
2019-04-06T21:05:07.856Z,4.45
2019-04-06T21:07:37.301Z,4.58
2019-04-06T21:10:08.783Z,4.60
2019-04-06T21:12:39.579Z,4.85
2019-04-06T21:15:17.726Z,4.40
2019-04-06T21:17:39.880Z,4.33
2019-04-06T21:20:09.258Z,4.25
2019-04-06T21:22:38.600Z,4.12
2019-04-06T21:25:07.961Z,4.00
2019-04-06T21:27:37.889Z,4.17
2019-04-06T21:30:08.309Z,4.22
2019-04-06T21:32:38.147Z,3.72
2019-04-06T21:35:08.254Z,4.30
2019-04-06T21:37:38.319Z,3.90
2019-04-06T21:40:07.915Z,3.35
2019-04-06T21:42:37.682Z,3.22
2019-04-06T21:45:08.475Z,3.60
2019-04-06T21:47:37.809Z,3.45
2019-04-06T21:50:08.139Z,3.45
2019-04-06T21:52:38.668Z,3.45
2019-04-06T21:55:08.963Z,3.70
2019-04-06T21:57:38.746Z,3.20
2019-04-06T22:00:08.634Z,3.27
2019-04-06T22:02:39.511Z,2.87
2019-04-06T22:05:09.383Z,2.95
2019-04-06T22:07:48.685Z,3.00
2019-04-06T22:10:10.547Z,3.45
2019-04-06T22:12:40.005Z,2.70
2019-04-06T22:15:12.484Z,3.17
2019-04-06T22:17:42.203Z,3.10
2019-04-06T22:20:12.473Z,3.00
2019-04-06T22:22:41.729Z,3.15
2019-04-06T22:25:11.205Z,3.30
2019-04-06T22:27:40.563Z,2.90
2019-04-06T22:30:10.430Z,3.40
2019-04-06T22:32:40.271Z,3.20
2019-04-06T22:35:09.960Z,3.00
2019-04-06T22:37:39.613Z,3.00
2019-04-06T22:40:09.566Z,2.77
2019-04-06T22:42:38.982Z,3.00
2019-04-06T22:45:10.570Z,3.12
2019-04-06T22:47:39.931Z,3.05
2019-04-06T22:50:09.608Z,3.02
2019-04-06T22:52:39.083Z,2.60
2019-04-06T22:55:09.500Z,2.77
2019-04-06T22:57:39.883Z,2.95
2019-04-06T23:00:11.351Z,2.70
2019-04-06T23:02:46.679Z,3.00
2019-04-06T23:05:26.859Z,2.77
2019-04-06T23:07:56.295Z,2.80
2019-04-06T23:10:25.974Z,3.08
2019-04-06T23:12:55.331Z,3.10
2019-04-06T23:15:24.703Z,3.30
2019-04-06T23:17:54.307Z,3.22
2019-04-06T23:20:24.343Z,3.20
2019-04-06T23:22:53.821Z,3.20
2019-04-06T23:25:23.240Z,2.98
2019-04-06T23:27:52.491Z,3.05
2019-04-06T23:30:21.770Z,3.58
2019-04-06T23:32:51.102Z,2.80
2019-04-06T23:35:20.887Z,3.47
2019-04-06T23:37:50.256Z,3.20
2019-04-06T23:40:19.535Z,3.47
2019-04-06T23:42:49.386Z,2.85
2019-04-06T23:45:18.767Z,3.27
2019-04-06T23:47:48.365Z,3.42
2019-04-06T23:50:17.880Z,3.20
2019-04-06T23:52:47.134Z,3.30
2019-04-06T23:55:16.419Z,3.33
2019-04-06T23:57:45.670Z,3.45
